^^
Saratoga-Weather Station Historical Data
Daily Summary for January 24, 2021 Units:  Both    English   Metric
Daily Weekly Monthly Yearly Custom
  High: Low: Average:
Temperature: 49.6 °F /  9.8 °C 45.9 °F /  7.7 °C 47.8 °F /  8.8 °C
Dew Point: 46.8 °F /  8.2 °C 43.9 °F /  6.6 °C 45.3 °F /  7.4 °C
Humidity: 93% 89% 91%
Wind Speed: 0.9mph /  1.4km/h - 0.1mph /  0.1km/h
Wind Gust: 2mph /  3.2km/h - -
Wind- - SW
Pressure: 30.5 in /  1032.5 hPa 30.5 in /  1031.8 hPa -
Precipitation: 0 in /  0.0 mm    
Historical Graphs
 
 
Tabular Data for January 24, 2021
Time Temperature Dew Point Pressure Wind Wind Speed Wind Gust Humidity Rainfall Rate (Hourly) solar
00:01 49.6 °F /  9.8 °C 46.6 °F /  8.1 °C 30.5in /  1032.2hPa Calm     89% 0in /  0.0mm 0 W/m2
00:06 49.6 °F /  9.8 °C 46.6 °F /  8.1 °C 30.5in /  1032.2hPa Calm     89% 0in /  0.0mm 0 W/m2
00:11 49.5 °F /  9.7 °C 46.4 °F /  8 °C 30.5in /  1032.2hPa Calm     89% 0in /  0.0mm 0 W/m2
00:16 49.6 °F /  9.8 °C 46.8 °F /  8.2 °C 30.5in /  1032.2hPa SW 0.9mph /  1.4km/h 1mph /  1.6km/h 90% 0in /  0.0mm 0 W/m2
00:21 49.5 °F /  9.7 °C 46.4 °F /  8 °C 30.5in /  1032.2hPa Calm     89% 0in /  0.0mm 0 W/m2
00:26 49.5 °F /  9.7 °C 46.4 °F /  8 °C 30.5in /  1032.2hPa Calm     89% 0in /  0.0mm 0 W/m2
00:31 49.3 °F /  9.6 °C 46.2 °F /  7.9 °C 30.5in /  1032.2hPa Calm     89% 0in /  0.0mm 0 W/m2
00:36 49.3 °F /  9.6 °C 46.2 °F /  7.9 °C 30.5in /  1032.2hPa Calm     89% 0in /  0.0mm 0 W/m2
00:41 49.1 °F /  9.5 °C 46.2 °F /  7.9 °C 30.5in /  1032.2hPa Calm     90% 0in /  0.0mm 0 W/m2
00:46 48.9 °F /  9.4 °C 46 °F /  7.8 °C 30.5in /  1032.2hPa Calm     90% 0in /  0.0mm 0 W/m2
00:51 48.7 °F /  9.3 °C 45.9 °F /  7.7 °C 30.5in /  1032.2hPa Calm     90% 0in /  0.0mm 0 W/m2
00:56 48.7 °F /  9.3 °C 46.2 °F /  7.9 °C 30.5in /  1032.2hPa Calm     91% 0in /  0.0mm 0 W/m2
01:01 48.6 °F /  9.2 °C 46 °F /  7.8 °C 30.5in /  1032.2hPa Calm     91% 0in /  0.0mm 0 W/m2
01:06 48.6 °F /  9.2 °C 46 °F /  7.8 °C 30.5in /  1032.2hPa Calm     91% 0in /  0.0mm 0 W/m2
01:11 48.6 °F /  9.2 °C 46 °F /  7.8 °C 30.5in /  1032.2hPa Calm   1mph /  1.6km/h 91% 0in /  0.0mm 0 W/m2
01:16 48.4 °F /  9.1 °C 45.9 °F /  7.7 °C 30.5in /  1032.2hPa Calm     91% 0in /  0.0mm 0 W/m2
01:21 48.2 °F /  9 °C 45.7 °F /  7.6 °C 30.5in /  1032.2hPa Calm     91% 0in /  0.0mm 0 W/m2
01:26 48 °F /  8.9 °C 45.5 °F /  7.5 °C 30.5in /  1032.2hPa Calm     91% 0in /  0.0mm 0 W/m2
01:31 48 °F /  8.9 °C 45.5 °F /  7.5 °C 30.5in /  1032.2hPa Calm     91% 0in /  0.0mm 0 W/m2
01:36 47.8 °F /  8.8 °C 45 °F /  7.2 °C 30.5in /  1032.2hPa Calm     90% 0in /  0.0mm 0 W/m2
01:41 47.7 °F /  8.7 °C 45.1 °F /  7.3 °C 30.5in /  1032.2hPa Calm     91% 0in /  0.0mm 0 W/m2
01:51 47.5 °F /  8.6 °C 45.3 °F /  7.4 °C 30.5in /  1032.2hPa Calm     92% 0in /  0.0mm 0 W/m2
01:56 47.5 °F /  8.6 °C 45.3 °F /  7.4 °C 30.5in /  1032.2hPa Calm     92% 0in /  0.0mm 0 W/m2
02:01 47.3 °F /  8.5 °C 45.1 °F /  7.3 °C 30.5in /  1032.2hPa Calm     92% 0in /  0.0mm 0 W/m2
02:06 47.1 °F /  8.4 °C 45 °F /  7.2 °C 30.5in /  1032.2hPa Calm     92% 0in /  0.0mm 0 W/m2
02:11 46.9 °F /  8.3 °C 44.8 °F /  7.1 °C 30.5in /  1032.2hPa Calm     92% 0in /  0.0mm 0 W/m2
02:16 46.8 °F /  8.2 °C 44.6 °F /  7 °C 30.5in /  1032.5hPa Calm     92% 0in /  0.0mm 0 W/m2
02:21 46.8 °F /  8.2 °C 44.6 °F /  7 °C 30.5in /  1032.2hPa Calm     92% 0in /  0.0mm 0 W/m2
02:26 46.4 °F /  8 °C 44.2 °F /  6.8 °C 30.5in /  1032.2hPa Calm     92% 0in /  0.0mm 0 W/m2
02:31 46.2 °F /  7.9 °C 44.2 °F /  6.8 °C 30.5in /  1032.2hPa Calm     93% 0in /  0.0mm 0 W/m2
02:36 46.2 °F /  7.9 °C 44.2 °F /  6.8 °C 30.5in /  1032.2hPa Calm     93% 0in /  0.0mm 0 W/m2
02:41 46.2 °F /  7.9 °C 44.2 °F /  6.8 °C 30.5in /  1032.2hPa Calm     93% 0in /  0.0mm 0 W/m2
02:46 46 °F /  7.8 °C 44.1 °F /  6.7 °C 30.5in /  1032.2hPa Calm     93% 0in /  0.0mm 0 W/m2
02:51 46 °F /  7.8 °C 44.1 °F /  6.7 °C 30.5in /  1032.2hPa SW 0.9mph /  1.4km/h 2mph /  3.2km/h 93% 0in /  0.0mm 0 W/m2
02:56 46 °F /  7.8 °C 44.1 °F /  6.7 °C 30.5in /  1031.8hPa Calm     93% 0in /  0.0mm 0 W/m2
03:01 46 °F /  7.8 °C 44.1 °F /  6.7 °C 30.5in /  1031.8hPa Calm   2mph /  3.2km/h 93% 0in /  0.0mm 0 W/m2
03:06 45.9 °F /  7.7 °C 43.9 °F /  6.6 °C 30.5in /  1031.8hPa Calm     93% 0in /  0.0mm 0 W/m2
Juneau County Weather
Compliments of Weather Underground - 4 mb